Time;durP1;ratioP1;P1;durP2;ratioP2;P2;SDS_P1;SDS_P2;PMS_P1;PMS_P2;Temp;Humidity;BMP_temperature;BMP_pressure;BME280_temperature;BME280_humidity;BME280_pressure;Samples;Min_cycle;Max_cycle;Signal;HPM_P1;HPM_P2
2022/12/13 00:00:19;;;;;;;55.33;21.50;;;;;;;-4.67;100.00;100936.44;4979917;28;20042;-77
2022/12/13 00:02:46;;;;;;;59.10;20.80;;;;;;;-4.62;100.00;100922.09;4994414;28;20031;-77
2022/12/13 00:05:12;;;;;;;65.40;22.98;;;;;;;-4.67;100.00;100913.28;4993677;28;20125;-77
2022/12/13 00:07:38;;;;;;;73.30;21.85;;;;;;;-4.64;100.00;100915.91;4977414;28;20062;-77
2022/12/13 00:10:04;;;;;;;63.90;21.23;;;;;;;-4.66;100.00;100920.38;4978861;28;20533;-77
2022/12/13 00:12:30;;;;;;;68.88;23.52;;;;;;;-4.74;100.00;100918.72;4977893;28;20038;-77
2022/12/13 00:14:56;;;;;;;58.28;22.13;;;;;;;-4.69;100.00;100904.41;4995173;28;20046;-77
2022/12/13 00:17:22;;;;;;;60.28;21.60;;;;;;;-4.79;100.00;100902.78;4959431;28;20496;-77
2022/12/13 00:19:48;;;;;;;54.13;21.52;;;;;;;-4.83;100.00;100907.28;4995331;28;20180;-77
2022/12/13 00:22:14;;;;;;;61.45;22.33;;;;;;;-4.94;100.00;100897.69;4992006;28;20047;-77
2022/12/13 00:24:40;;;;;;;60.15;21.77;;;;;;;-4.95;100.00;100910.16;4995380;28;20033;-77
2022/12/13 00:27:05;;;;;;;57.63;21.00;;;;;;;-4.90;100.00;100912.72;4976768;28;20058;-78
2022/12/13 00:29:31;;;;;;;52.75;20.15;;;;;;;-4.88;100.00;100908.28;4994401;28;20153;-77
2022/12/13 00:31:57;;;;;;;53.63;19.15;;;;;;;-4.86;100.00;100912.66;4982576;28;20050;-77
2022/12/13 00:34:22;;;;;;;46.63;18.67;;;;;;;-4.88;100.00;100905.59;4986644;28;20049;-76
2022/12/13 00:36:48;;;;;;;49.03;18.80;;;;;;;-4.86;100.00;100901.97;4979489;28;20046;-78
2022/12/13 00:39:15;;;;;;;58.40;17.90;;;;;;;-4.84;100.00;100916.22;4993390;28;20425;-77
2022/12/13 00:41:42;;;;;;;62.13;20.42;;;;;;;-4.84;100.00;100921.56;4977486;28;20049;-77
2022/12/13 00:44:10;;;;;;;45.00;18.65;;;;;;;-4.80;100.00;100909.03;4978312;28;20034;-78
2022/12/13 00:46:37;;;;;;;58.30;21.98;;;;;;;-4.82;100.00;100913.50;4996051;28;20038;-77
2022/12/13 00:49:03;;;;;;;51.20;20.58;;;;;;;-4.89;100.00;100911.84;4996275;28;20102;-78
2022/12/13 00:51:32;;;;;;;54.80;20.40;;;;;;;-4.92;100.00;100911.88;4963353;28;20030;-76
2022/12/13 00:53:59;;;;;;;49.10;18.58;;;;;;;-4.89;100.00;100914.50;4978587;28;20080;-76
2022/12/13 00:56:27;;;;;;;57.20;21.30;;;;;;;-4.91;100.00;100911.84;4985184;28;20062;-77
2022/12/13 00:58:54;;;;;;;56.17;21.10;;;;;;;-4.84;100.00;100905.53;4971439;28;20102;-77
2022/12/13 01:01:23;;;;;;;52.88;20.98;;;;;;;-4.82;100.00;100905.50;4994541;28;20099;-77
2022/12/13 01:03:53;;;;;;;57.53;19.60;;;;;;;-4.81;100.00;100904.59;4979305;28;20026;-75
2022/12/13 01:06:21;;;;;;;55.53;21.02;;;;;;;-4.81;100.00;100900.13;4975727;28;20031;-77
2022/12/13 01:08:48;;;;;;;57.03;21.27;;;;;;;-4.83;100.00;100895.72;4977414;28;20403;-76
2022/12/13 01:11:14;;;;;;;48.83;18.75;;;;;;;-4.91;100.00;100898.50;4991293;28;20049;-78
2022/12/13 01:13:40;;;;;;;53.92;18.73;;;;;;;-5.03;100.00;100888.91;4983180;28;20129;-77
2022/12/13 01:16:08;;;;;;;51.33;19.40;;;;;;;-4.97;100.00;100900.38;4993356;28;20065;-77
2022/12/13 01:18:35;;;;;;;56.97;20.52;;;;;;;-5.02;100.00;100898.69;4995041;28;20374;-77
2022/12/13 01:21:16;;;;;;;51.22;18.20;;;;;;;-4.94;100.00;100893.22;4995187;28;20042;-77
2022/12/13 01:23:42;;;;;;;51.75;19.23;;;;;;;-5.03;100.00;100902.25;4979027;28;20030;-76
2022/12/13 01:26:12;;;;;;;50.50;17.92;;;;;;;-5.00;100.00;100901.28;4995047;28;20077;-78
2022/12/13 01:28:38;;;;;;;50.92;17.95;;;;;;;-5.06;100.00;100902.28;4980709;28;20038;-78
2022/12/13 01:31:06;;;;;;;53.83;18.92;;;;;;;-5.12;100.00;100905.03;4957525;28;20050;-77
2022/12/13 01:33:32;;;;;;;47.10;18.08;;;;;;;-5.22;100.00;100901.59;4978047;28;20176;-77
2022/12/13 01:36:04;;;;;;;53.47;19.48;;;;;;;-5.17;100.00;100906.88;4993018;28;20030;-77
2022/12/13 01:38:32;;;;;;;58.30;18.45;;;;;;;-5.07;100.00;100902.31;4978002;28;20034;-77
2022/12/13 01:40:57;;;;;;;49.88;17.92;;;;;;;-5.04;100.00;100904.94;4999710;28;20046;-77
2022/12/13 01:43:35;;;;;;;55.03;19.90;;;;;;;-5.07;100.00;100904.97;5001227;28;20038;-77
2022/12/13 01:46:01;;;;;;;50.40;18.70;;;;;;;-5.13;100.00;100899.72;4996798;28;20041;-78
2022/12/13 01:48:33;;;;;;;49.22;18.50;;;;;;;-5.09;100.00;100904.13;4975944;28;20038;-77
2022/12/13 01:51:02;;;;;;;53.58;20.00;;;;;;;-5.18;100.00;100892.66;4972906;28;20038;-77
2022/12/13 01:53:33;;;;;;;56.40;21.20;;;;;;;-5.17;100.00;100899.75;4966474;28;20467;-77
2022/12/13 01:56:05;;;;;;;53.47;20.00;;;;;;;-5.23;100.00;100898.94;4982312;28;20121;-77
2022/12/13 01:58:37;;;;;;;47.67;17.05;;;;;;;-5.20;100.00;100901.59;4990050;28;20034;-77
2022/12/13 02:01:03;;;;;;;56.85;19.83;;;;;;;-5.15;100.00;100913.06;5002150;28;20171;-77
2022/12/13 02:03:28;;;;;;;54.47;18.63;;;;;;;-5.13;100.00;100903.28;4985526;28;20055;-77
2022/12/13 02:06:06;;;;;;;54.35;18.77;;;;;;;-5.18;100.00;100902.47;5013262;28;20130;-77
2022/12/13 02:08:33;;;;;;;47.67;18.00;;;;;;;-5.16;100.00;100897.97;4985013;28;20041;-78
2022/12/13 02:11:03;;;;;;;52.67;17.83;;;;;;;-5.17;100.00;100902.41;4983921;28;20078;-78
2022/12/13 02:13:28;;;;;;;48.28;18.08;;;;;;;-5.20;100.00;100906.91;4982996;28;20509;-77
2022/12/13 02:16:15;;;;;;;48.70;18.85;;;;;;;-5.17;100.00;100909.56;5014375;28;20034;-77
2022/12/13 02:19:05;;;;;;;46.42;17.27;;;;;;;-5.22;100.00;100912.28;4988151;28;20512;-77
2022/12/13 02:22:02;;;;;;;47.22;17.88;;;;;;;-5.25;100.00;100901.63;4982525;28;20101;-77
2022/12/13 02:24:56;;;;;;;48.58;18.25;;;;;;;-5.21;100.00;100907.84;4968056;28;20474;-76
2022/12/13 02:27:58;;;;;;;50.35;20.52;;;;;;;-5.22;100.00;100906.94;4998442;28;20089;-77
2022/12/13 02:30:49;;;;;;;43.40;17.58;;;;;;;-5.25;100.00;100909.66;5011991;28;20041;-77
2022/12/13 02:33:42;;;;;;;47.67;17.42;;;;;;;-5.31;100.00;100914.19;4978765;28;20030;-77
2022/12/13 02:36:43;;;;;;;51.17;18.07;;;;;;;-5.32;100.00;100909.78;4995928;28;20126;-78
2022/12/13 02:39:16;;;;;;;48.88;18.92;;;;;;;-5.30;100.00;100913.28;4980610;28;20045;-76
2022/12/13 02:41:44;;;;;;;48.50;17.92;;;;;;;-5.27;100.00;100908.78;5001845;28;20041;-77
2022/12/13 02:44:18;;;;;;;49.05;19.10;;;;;;;-5.33;100.00;100897.31;4999148;28;20030;-77
2022/12/13 02:46:58;;;;;;;50.70;18.90;;;;;;;-5.33;100.00;100897.31;4981190;28;20062;-76
2022/12/13 02:49:28;;;;;;;44.75;17.90;;;;;;;-5.41;100.00;100889.41;4980996;28;20381;-78
2022/12/13 02:51:58;;;;;;;45.97;18.83;;;;;;;-5.42;100.00;100893.88;4977887;28;20041;-78
2022/12/13 02:54:23;;;;;;;53.03;19.05;;;;;;;-5.48;100.00;100877.94;4997814;28;20026;-77
2022/12/13 02:56:56;;;;;;;46.53;18.48;;;;;;;-5.42;100.00;100891.19;4998468;28;20030;-76
2022/12/13 02:59:27;;;;;;;52.38;19.20;;;;;;;-5.46;100.00;100880.59;4978697;28;20494;-76
2022/12/13 03:02:16;;;;;;;49.20;19.70;;;;;;;-5.48;100.00;100888.59;4994042;28;20042;-77
2022/12/13 03:08:00;;;;;;;44.80;16.38;;;;;;;-5.58;100.00;100881.63;5000108;28;20045;-77
2022/12/13 03:10:38;;;;;;;49.70;18.38;;;;;;;-5.58;100.00;100879.84;4996108;28;20039;-77
2022/12/13 03:13:36;;;;;;;51.80;18.52;;;;;;;-5.62;100.00;100886.13;4985945;28;20063;-77
2022/12/13 03:16:23;;;;;;;50.35;18.45;;;;;;;-5.47;100.00;100881.50;4987309;28;20402;-77
2022/12/13 03:18:51;;;;;;;59.58;20.77;;;;;;;-5.46;100.00;100876.16;4998434;28;20030;-76
2022/12/13 03:21:16;;;;;;;48.45;19.25;;;;;;;-5.41;100.00;100881.41;4981502;28;20046;-76
2022/12/13 03:23:42;;;;;;;55.25;20.48;;;;;;;-5.45;100.00;100871.69;4980947;28;20072;-77
2022/12/13 03:26:11;;;;;;;70.60;23.42;;;;;;;-5.37;100.00;100886.69;4982862;28;20054;-76
2022/12/13 03:28:38;;;;;;;63.67;23.73;;;;;;;-5.32;100.00;100878.63;4981935;28;20049;-77
2022/12/13 03:31:03;;;;;;;60.05;21.90;;;;;;;-5.40;100.00;100876.06;4981404;28;20039;-78
2022/12/13 03:33:30;;;;;;;68.43;24.52;;;;;;;-5.34;100.00;100875.09;4989385;28;20039;-77
2022/12/13 03:35:57;;;;;;;67.30;23.48;;;;;;;-5.40;100.00;100875.19;4997528;28;20038;-77
2022/12/13 03:38:23;;;;;;;80.70;25.55;;;;;;;-5.42;100.00;100880.53;4997292;28;20050;-76
2022/12/13 03:40:51;;;;;;;68.43;23.20;;;;;;;-5.44;100.00;100871.66;4983595;28;20035;-77
2022/12/13 03:43:16;;;;;;;88.85;26.08;;;;;;;-5.44;100.00;100878.81;4954387;28;20446;-77
2022/12/13 03:45:42;;;;;;;74.18;22.67;;;;;;;-5.46;100.00;100875.25;4975009;28;20042;-76
2022/12/13 03:48:07;;;;;;;76.72;26.52;;;;;;;-5.36;100.00;100882.25;4980521;28;20068;-77
2022/12/13 03:50:32;;;;;;;70.47;25.13;;;;;;;-5.50;100.00;100860.19;4997857;28;20049;-76
2022/12/13 03:53:02;;;;;;;65.00;23.80;;;;;;;-5.48;100.00;100880.59;4989571;28;20031;-76
2022/12/13 03:55:28;;;;;;;70.03;25.52;;;;;;;-5.43;100.00;100880.53;4978717;28;20081;-76
2022/12/13 03:57:55;;;;;;;75.85;25.63;;;;;;;-5.43;100.00;100876.09;5003578;28;20026;-77
2022/12/13 04:00:22;;;;;;;81.53;24.85;;;;;;;-5.43;100.00;100870.75;4995821;28;20050;-77
2022/12/13 04:02:48;;;;;;;77.20;25.63;;;;;;;-5.43;100.00;100870.75;4996355;28;20023;-75
2022/12/13 04:05:15;;;;;;;78.10;25.40;;;;;;;-5.38;100.00;100863.59;4995672;28;20062;-77
2022/12/13 04:07:40;;;;;;;77.43;24.25;;;;;;;-5.40;100.00;100861.84;4995595;28;20088;-76
2022/12/13 04:10:07;;;;;;;72.18;25.85;;;;;;;-5.32;100.00;100869.75;4977129;28;20486;-76
2022/12/13 04:15:18;;;;;;;71.78;24.92;;;;;;;-5.30;100.00;100870.59;4998909;28;20050;-77
2022/12/13 04:17:44;;;;;;;77.03;26.17;;;;;;;-5.28;100.00;100859.00;4980150;28;20038;-76
2022/12/13 04:20:10;;;;;;;75.38;24.13;;;;;;;-5.22;100.00;100866.03;4994970;28;20046;-76
2022/12/13 04:22:35;;;;;;;77.43;27.00;;;;;;;-5.30;100.00;100862.59;4979889;28;20038;-76
2022/12/13 04:25:01;;;;;;;75.05;26.58;;;;;;;-5.32;100.00;100862.63;5011903;28;20516;-77
2022/12/13 04:27:26;;;;;;;69.60;24.35;;;;;;;-5.40;100.00;100861.84;4976545;28;20130;-76
2022/12/13 04:29:52;;;;;;;71.30;25.30;;;;;;;-5.43;100.00;100849.41;4986513;28;20484;-76
2022/12/13 04:32:17;;;;;;;69.03;23.88;;;;;;;-5.43;100.00;100856.53;4996275;28;20129;-77
2022/12/13 04:34:43;;;;;;;70.20;23.73;;;;;;;-5.44;100.00;100849.47;4960197;28;20130;-76
2022/12/13 04:37:08;;;;;;;64.70;22.27;;;;;;;-5.41;100.00;100852.06;4969061;28;20496;-76
2022/12/13 04:39:34;;;;;;;52.40;20.38;;;;;;;-5.43;100.00;100849.41;4976246;28;20035;-77
2022/12/13 04:42:01;;;;;;;65.10;21.67;;;;;;;-5.39;100.00;100856.47;4986664;28;20049;-76
2022/12/13 04:44:26;;;;;;;58.72;21.38;;;;;;;-5.43;100.00;100856.53;4993168;28;20039;-76
2022/12/13 04:46:52;;;;;;;56.28;20.05;;;;;;;-5.47;100.00;100852.16;4978389;28;20038;-77
2022/12/13 04:49:17;;;;;;;56.95;20.88;;;;;;;-5.54;100.00;100851.38;4963697;28;20149;-77
2022/12/13 04:51:43;;;;;;;68.55;20.13;;;;;;;-5.40;100.00;100853.84;4995354;28;20038;-76
2022/12/13 04:54:10;;;;;;;59.60;19.65;;;;;;;-5.48;100.00;100851.25;4959632;28;20038;-77
2022/12/13 04:56:37;;;;;;;54.70;19.67;;;;;;;-5.49;100.00;100849.50;4956547;28;20038;-76
2022/12/13 04:59:02;;;;;;;59.15;20.65;;;;;;;-5.43;100.00;100845.88;4994243;28;20464;-77
2022/12/13 05:01:28;;;;;;;60.85;22.45;;;;;;;-5.47;100.00;100839.69;4995982;28;20039;-76
2022/12/13 05:03:53;;;;;;;46.95;18.02;;;;;;;-5.51;100.00;100843.28;4991406;28;20031;-77
2022/12/13 05:06:22;;;;;;;53.70;20.48;;;;;;;-5.56;100.00;100842.47;4942596;28;20117;-77
2022/12/13 05:08:47;;;;;;;52.03;19.45;;;;;;;-5.56;100.00;100843.38;4985164;28;20057;-77
2022/12/13 05:11:14;;;;;;;57.28;20.50;;;;;;;-5.60;100.00;100838.09;4993105;28;20490;-78
2022/12/13 05:13:40;;;;;;;48.40;18.42;;;;;;;-5.61;100.00;100833.66;4971687;28;20525;-78
2022/12/13 05:16:07;;;;;;;53.08;18.60;;;;;;;-5.72;100.00;100832.03;4946137;28;20034;-77
2022/12/13 05:18:34;;;;;;;62.90;19.73;;;;;;;-5.70;100.00;100831.13;4994921;28;20042;-78
2022/12/13 05:21:07;;;;;;;47.60;19.00;;;;;;;-5.72;100.00;100836.47;4995647;28;20108;-77
2022/12/13 05:23:33;;;;;;;47.30;18.95;;;;;;;-5.78;100.00;100842.75;4978353;28;20042;-77
2022/12/13 05:26:00;;;;;;;60.15;19.10;;;;;;;-5.83;100.00;100828.59;4969167;28;20042;-77
2022/12/13 05:28:27;;;;;;;48.70;19.52;;;;;;;-5.86;100.00;100835.75;4973088;28;20030;-76
2022/12/13 05:31:05;;;;;;;37.22;17.42;;;;;;;-5.87;100.00;100826.88;4984038;28;20108;-76
2022/12/13 05:33:34;;;;;;;56.88;19.27;;;;;;;-5.80;100.00;100835.69;4980983;28;20113;-77
2022/12/13 05:36:00;;;;;;;56.08;20.95;;;;;;;-5.83;100.00;100827.72;4959476;28;20108;-76
2022/12/13 05:38:26;;;;;;;52.10;19.77;;;;;;;-5.88;100.00;100819.78;4989287;28;20125;-76
2022/12/13 05:40:51;;;;;;;54.63;19.48;;;;;;;-5.93;100.00;100822.50;4993594;28;20409;-76
2022/12/13 05:43:20;;;;;;;51.55;19.85;;;;;;;-5.89;100.00;100825.13;4995262;28;20455;-75
2022/12/13 05:45:46;;;;;;;55.05;19.17;;;;;;;-5.94;100.00;100818.06;4992301;28;20050;-77
2022/12/13 05:48:11;;;;;;;49.15;17.65;;;;;;;-5.99;100.00;100816.41;4971770;28;20034;-76
2022/12/13 05:50:37;;;;;;;47.58;18.67;;;;;;;-6.04;100.00;100821.78;4976868;28;20042;-76
2022/12/13 05:53:04;;;;;;;56.58;18.35;;;;;;;-6.01;100.00;100824.41;4992702;28;20074;-77
2022/12/13 05:55:29;;;;;;;46.97;18.45;;;;;;;-5.94;100.00;100819.84;4993153;28;20033;-77
2022/12/13 05:57:56;;;;;;;54.03;19.88;;;;;;;-5.86;100.00;100817.97;4975297;28;20046;-77
2022/12/13 06:00:21;;;;;;;59.08;21.63;;;;;;;-5.78;100.00;100821.44;4977066;28;20039;-76
2022/12/13 06:02:46;;;;;;;62.38;21.60;;;;;;;-5.75;100.00;100816.06;4947898;28;20125;-76
2022/12/13 06:05:12;;;;;;;51.17;20.55;;;;;;;-5.70;100.00;100810.66;4975646;28;20089;-76
2022/12/13 06:07:37;;;;;;;57.83;22.23;;;;;;;-5.64;100.00;100815.03;4974485;28;20039;-77
2022/12/13 06:10:08;;;;;;;60.38;21.08;;;;;;;-5.61;100.00;100815.88;4968645;28;20050;-77
2022/12/13 06:12:35;;;;;;;55.05;20.52;;;;;;;-5.76;100.00;100819.63;4987513;28;20035;-76
2022/12/13 06:15:01;;;;;;;63.53;20.77;;;;;;;-5.67;100.00;100820.41;4989245;28;20455;-76
2022/12/13 06:17:31;;;;;;;55.03;20.05;;;;;;;-5.79;100.00;100818.78;4991080;28;20375;-77
2022/12/13 06:19:57;;;;;;;54.65;19.52;;;;;;;-5.75;100.00;100809.84;4985194;28;20034;-77
2022/12/13 06:22:22;;;;;;;53.83;21.15;;;;;;;-5.78;100.00;100820.56;4994823;28;20049;-77
2022/12/13 06:24:48;;;;;;;55.90;20.23;;;;;;;-5.85;100.00;100821.50;4972853;28;20122;-76
2022/12/13 06:27:14;;;;;;;63.30;21.27;;;;;;;-5.58;100.00;100821.16;4971713;28;20564;-77
2022/12/13 06:29:40;;;;;;;74.40;23.40;;;;;;;-5.51;100.00;100819.28;4978629;28;20031;-77
2022/12/13 06:32:05;;;;;;;69.60;23.85;;;;;;;-5.51;100.00;100819.28;4979915;28;20039;-77
2022/12/13 06:34:33;;;;;;;70.10;24.95;;;;;;;-5.39;100.00;100824.47;4965552;28;20038;-76
2022/12/13 06:37:02;;;;;;;69.72;23.83;;;;;;;-5.46;100.00;100829.91;4999608;28;20028;-76
2022/12/13 06:39:28;;;;;;;56.70;22.17;;;;;;;-5.47;100.00;100821.03;4988591;28;20068;-77
2022/12/13 06:41:54;;;;;;;74.63;26.17;;;;;;;-5.36;100.00;100818.22;4981316;28;20038;-78
2022/12/13 06:44:20;;;;;;;68.78;22.77;;;;;;;-5.35;100.00;100823.50;4996604;28;20394;-77
2022/12/13 06:46:45;;;;;;;71.05;24.48;;;;;;;-5.31;100.00;100820.78;4995227;28;20026;-77
2022/12/13 06:49:11;;;;;;;66.80;21.67;;;;;;;-5.39;100.00;100815.59;5000454;28;20056;-77
2022/12/13 06:51:37;;;;;;;70.45;24.35;;;;;;;-5.40;100.00;100814.69;4983349;28;20046;-76
2022/12/13 06:54:03;;;;;;;67.60;24.20;;;;;;;-5.30;100.00;100817.25;4998322;28;20494;-77
2022/12/13 06:56:32;;;;;;;70.53;24.63;;;;;;;-5.28;100.00;100810.09;4985066;28;20034;-77
2022/12/13 06:59:02;;;;;;;71.45;24.08;;;;;;;-5.33;100.00;100814.59;4971352;28;20038;-77
2022/12/13 07:01:29;;;;;;;80.97;26.00;;;;;;;-5.32;100.00;100813.72;4985984;28;20070;-80
2022/12/13 07:03:57;;;;;;;74.63;26.63;;;;;;;-5.29;100.00;100819.88;4980095;28;20118;-80
2022/12/13 07:06:24;;;;;;;62.97;22.45;;;;;;;-5.30;100.00;100823.44;5001845;28;20046;-81
2022/12/13 07:08:55;;;;;;;70.57;22.95;;;;;;;-5.34;100.00;100816.41;4984946;28;20034;-80
2022/12/13 07:11:26;;;;;;;84.38;25.23;;;;;;;-5.30;100.00;100820.78;4995783;28;20069;-79
2022/12/13 07:13:53;;;;;;;68.95;24.20;;;;;;;-5.31;100.00;100823.47;5000869;28;20058;-80
2022/12/13 07:16:19;;;;;;;69.75;24.30;;;;;;;-5.34;100.00;100832.41;4989918;28;20041;-77
2022/12/13 07:18:44;;;;;;;75.47;25.42;;;;;;;-5.30;100.00;100827.91;4999247;28;20085;-78
2022/12/13 07:21:13;;;;;;;64.85;25.70;;;;;;;-5.32;100.00;100821.72;5013378;28;20042;-79
2022/12/13 07:23:39;;;;;;;65.05;24.50;;;;;;;-5.38;100.00;100815.56;4991554;28;20489;-79
2022/12/13 07:26:05;;;;;;;75.07;25.27;;;;;;;-5.40;100.00;100822.69;4989731;28;20045;-79
2022/12/13 07:28:36;;;;;;;69.55;25.55;;;;;;;-5.36;100.00;100829.75;4980007;28;20078;-80
2022/12/13 07:31:07;;;;;;;78.88;25.73;;;;;;;-5.39;100.00;100821.81;4992885;28;20130;-79
2022/12/13 07:33:34;;;;;;;66.78;23.30;;;;;;;-5.37;100.00;100825.31;4992899;28;20041;-80
2022/12/13 07:36:05;;;;;;;81.10;25.13;;;;;;;-5.41;100.00;100825.38;4984479;28;20401;-79
2022/12/13 07:38:36;;;;;;;64.32;25.60;;;;;;;-5.42;100.00;100823.63;5012868;28;20046;-78
2022/12/13 07:41:01;;;;;;;74.95;25.30;;;;;;;-5.36;100.00;100831.56;4980381;28;20062;-80
2022/12/13 07:43:28;;;;;;;73.25;26.63;;;;;;;-5.41;100.00;100823.63;4998844;28;20041;-81
2022/12/13 07:45:57;;;;;;;67.78;24.17;;;;;;;-5.42;100.00;100826.31;4967581;28;20042;-78
2022/12/13 07:48:22;;;;;;;73.20;25.85;;;;;;;-5.26;100.00;100845.66;5000449;28;20777;-79
2022/12/13 07:50:48;;;;;;;66.20;24.40;;;;;;;-5.31;100.00;100839.47;4997832;28;20074;-78
2022/12/13 07:53:13;;;;;;;75.28;26.05;;;;;;;-5.24;100.00;100841.16;4992585;28;20050;-78
2022/12/13 07:55:39;;;;;;;72.93;24.48;;;;;;;-5.29;100.00;100835.03;4991870;28;20046;-79
2022/12/13 07:58:13;;;;;;;72.55;23.50;;;;;;;-5.25;100.00;100850.06;4968917;28;20045;-80
2022/12/13 08:00:40;;;;;;;87.82;28.10;;;;;;;-5.26;100.00;100845.66;4996987;28;20050;-78
2022/12/13 08:03:09;;;;;;;75.70;25.77;;;;;;;-5.20;100.00;100850.88;4995287;28;20030;-80
2022/12/13 08:05:36;;;;;;;72.55;25.55;;;;;;;-5.22;100.00;100850.91;4963726;28;20031;-80
2022/12/13 08:08:02;;;;;;;77.60;27.38;;;;;;;-5.13;100.00;100855.25;4998768;28;20038;-81
2022/12/13 08:10:28;;;;;;;82.85;27.02;;;;;;;-5.22;100.00;100850.03;4984069;28;20030;-79
2022/12/13 08:12:55;;;;;;;95.40;28.88;;;;;;;-5.14;100.00;100848.13;4997790;28;20034;-80
2022/12/13 08:15:21;;;;;;;74.18;26.50;;;;;;;-5.15;100.00;100842.81;4998432;28;20050;-78
2022/12/13 08:17:47;;;;;;;73.97;26.08;;;;;;;-5.05;100.00;100837.31;4991953;28;20034;-78
2022/12/13 08:20:12;;;;;;;76.10;25.92;;;;;;;-5.14;100.00;100842.78;5002401;28;20113;-78
2022/12/13 08:22:38;;;;;;;68.57;24.25;;;;;;;-5.12;100.00;100830.31;4997627;28;20084;-79
2022/12/13 08:25:09;;;;;;;77.38;26.73;;;;;;;-5.07;100.00;100836.44;4998083;28;20054;-79
2022/12/13 08:27:34;;;;;;;65.45;24.23;;;;;;;-5.04;100.00;100835.53;4981571;28;20145;-79
2022/12/13 08:30:00;;;;;;;73.70;25.83;;;;;;;-5.06;100.00;100837.34;4992131;28;20612;-78
2022/12/13 08:32:27;;;;;;;69.38;26.27;;;;;;;-5.03;100.00;100847.97;4985579;28;20042;-80
2022/12/13 08:34:52;;;;;;;72.40;25.73;;;;;;;-4.97;100.00;100853.19;4983633;28;20500;-78
2022/12/13 08:37:18;;;;;;;76.72;28.25;;;;;;;-4.96;100.00;100843.44;4968722;28;20117;-79
2022/12/13 08:39:43;;;;;;;84.18;27.90;;;;;;;-4.97;100.00;100847.88;5002310;28;20034;-79
2022/12/13 08:42:14;;;;;;;71.13;25.70;;;;;;;-4.89;100.00;100851.28;4997346;28;20058;-78
2022/12/13 08:44:40;;;;;;;73.95;25.23;;;;;;;-4.89;100.00;100855.75;4998478;28;20031;-80
2022/12/13 08:47:09;;;;;;;85.38;27.92;;;;;;;-4.81;100.00;100860.06;4998926;28;20494;-80
2022/12/13 08:49:34;;;;;;;76.63;26.95;;;;;;;-4.75;100.00;100864.44;5000208;28;20034;-79
2022/12/13 08:52:00;;;;;;;74.38;27.77;;;;;;;-4.78;100.00;100861.81;4998444;28;20066;-79
2022/12/13 08:54:25;;;;;;;78.63;25.35;;;;;;;-4.76;100.00;100854.66;4994470;28;20405;-79
2022/12/13 08:56:51;;;;;;;74.45;26.67;;;;;;;-4.72;100.00;100848.38;4983704;28;20121;-79
2022/12/13 08:59:17;;;;;;;75.10;26.17;;;;;;;-4.66;100.00;100863.41;4995446;28;20118;-77
2022/12/13 09:01:43;;;;;;;68.78;25.27;;;;;;;-4.52;100.00;100871.22;4964685;28;20401;-79
2022/12/13 09:04:09;;;;;;;72.00;24.52;;;;;;;-4.50;100.00;100869.38;4994894;28;20060;-77
2022/12/13 09:06:34;;;;;;;69.43;24.77;;;;;;;-4.44;100.00;100861.28;4996903;28;20038;-77
2022/12/13 09:09:03;;;;;;;78.95;26.38;;;;;;;-4.37;100.00;100865.59;4986966;28;20045;-77
2022/12/13 09:11:28;;;;;;;76.18;26.48;;;;;;;-4.25;100.00;100875.19;4977670;28;20043;-77
2022/12/13 09:13:53;;;;;;;68.57;28.15;;;;;;;-4.26;100.00;100884.13;4981621;28;20054;-78
2022/12/13 09:16:22;;;;;;;77.50;28.38;;;;;;;-4.21;100.00;100881.34;4993532;28;20042;-79
2022/12/13 09:18:48;;;;;;;79.55;28.52;;;;;;;-4.13;100.00;100874.06;4982496;28;20140;-80
2022/12/13 09:21:15;;;;;;;80.05;27.27;;;;;;;-4.19;100.00;100859.03;4966420;28;20391;-79
2022/12/13 09:23:41;;;;;;;71.53;27.13;;;;;;;-4.12;100.00;100862.47;4952156;28;20050;-79
2022/12/13 09:26:07;;;;;;;71.18;27.25;;;;;;;-4.13;100.00;100869.63;5005207;28;20070;-79
2022/12/13 09:28:35;;;;;;;66.28;25.80;;;;;;;-3.94;100.00;100875.47;5004406;28;20054;-78
2022/12/13 09:31:14;;;;;;;71.70;27.75;;;;;;;-3.86;100.00;100877.16;4986972;28;20026;-78
2022/12/13 09:33:40;;;;;;;69.35;26.88;;;;;;;-3.80;100.00;100877.03;5011655;28;20049;-77
2022/12/13 09:36:09;;;;;;;68.55;26.20;;;;;;;-3.57;100.00;100869.41;4984934;28;20417;-78
2022/12/13 09:38:35;;;;;;;81.93;28.38;;;;;;;-3.50;100.00;100870.16;5002622;28;20030;-77
2022/12/13 09:41:18;;;;;;;75.18;27.50;;;;;;;-3.28;100.00;100881.31;4985618;28;20058;-81
2022/12/13 09:43:46;;;;;;;67.75;27.25;;;;;;;-3.26;100.00;100878.56;5003821;28;20038;-79
2022/12/13 09:46:29;;;;;;;65.25;25.27;;;;;;;-3.09;100.00;100884.44;4983654;28;20042;-78
2022/12/13 09:48:56;;;;;;;69.22;27.38;;;;;;;-3.11;100.00;100880.94;4984253;28;20133;-78
2022/12/13 09:51:24;;;;;;;67.32;25.92;;;;;;;-2.81;100.00;100867.75;4982507;28;20041;-78
2022/12/13 09:53:51;;;;;;;64.05;25.85;;;;;;;-2.84;100.00;100878.53;4986110;28;20043;-79
2022/12/13 09:56:22;;;;;;;69.35;26.80;;;;;;;-2.56;100.00;100875.19;4984076;28;20094;-78
2022/12/13 09:58:50;;;;;;;68.65;25.48;;;;;;;-2.72;100.00;100869.31;4986450;28;20101;-82
2022/12/13 10:01:15;;;;;;;64.65;26.13;;;;;;;-2.62;100.00;100870.88;5002178;28;20061;-78
2022/12/13 10:03:45;;;;;;;59.72;24.38;;;;;;;-2.59;100.00;100850.22;4995255;28;20038;-79
2022/12/13 10:06:15;;;;;;;63.25;24.83;;;;;;;-2.45;100.00;100851.69;4995396;28;20493;-80
2022/12/13 10:08:47;;;;;;;73.90;26.02;;;;;;;-2.34;100.00;100854.97;5001470;28;20030;-78
2022/12/13 10:11:16;;;;;;;67.22;26.90;;;;;;;-2.26;100.00;100833.34;4997131;28;20038;-77
2022/12/13 10:13:57;;;;;;;62.45;25.17;;;;;;;-2.08;100.00;100845.38;4997590;28;20038;-77
2022/12/13 10:16:34;;;;;;;68.25;25.90;;;;;;;-1.72;100.00;100847.91;4998648;28;20088;-79
2022/12/13 10:19:22;;;;;;;62.88;24.95;;;;;;;-1.78;100.00;100832.00;5017671;28;20057;-77
2022/12/13 10:21:50;;;;;;;56.90;23.42;;;;;;;-1.68;100.00;100845.09;4990459;28;20134;-77
2022/12/13 10:24:29;;;;;;;60.63;23.45;;;;;;;-1.77;100.00;100837.34;4991218;28;20502;-79
2022/12/13 10:27:13;;;;;;;51.85;22.20;;;;;;;-1.68;100.00;100828.13;4990908;28;20065;-80
2022/12/13 10:30:07;;;;;;;57.05;20.77;;;;;;;-1.67;100.00;100820.03;4985815;28;20049;-79
2022/12/13 10:32:41;;;;;;;;;;;;;;;-1.62;100.00;100824.38;5004123;28;20082;-81
2022/12/13 10:35:23;;;;;;;57.67;21.92;;;;;;;-1.64;100.00;100823.56;5005679;28;19925;-80
2022/12/13 10:37:49;;;;;;;59.25;22.63;;;;;;;-1.82;100.00;100815.13;5011283;28;20409;-79
2022/12/13 10:40:31;;;;;;;55.38;21.75;;;;;;;-1.80;100.00;100809.69;4962125;28;20037;-77
2022/12/13 10:43:13;;;;;;;57.45;21.20;;;;;;;-1.75;100.00;100807.78;4985985;28;20034;-79
2022/12/13 10:45:43;;;;;;;58.45;21.85;;;;;;;-1.79;100.00;100790.88;4987402;28;20049;-78
2022/12/13 10:48:20;;;;;;;50.75;19.65;;;;;;;-1.54;100.00;100808.94;4996439;28;20061;-79
2022/12/13 10:51:08;;;;;;;46.83;18.85;;;;;;;-1.45;100.00;100800.59;4995014;28;20050;-78
2022/12/13 10:53:40;;;;;;;50.55;19.60;;;;;;;-1.45;100.00;100797.06;5002464;28;20516;-78
2022/12/13 10:56:08;;;;;;;45.25;19.20;;;;;;;-1.50;100.00;100794.50;4998052;28;20105;-80
2022/12/13 10:58:39;;;;;;;47.97;21.13;;;;;;;-1.10;100.00;100793.25;4999792;28;20490;-78
2022/12/13 11:01:17;;;;;;;51.15;21.15;;;;;;;-1.05;100.00;100791.31;4980685;28;20417;-80
2022/12/13 11:03:57;;;;;;;46.65;21.67;;;;;;;-0.77;100.00;100785.91;4993992;28;20474;-80
2022/12/13 11:06:22;;;;;;;49.45;19.95;;;;;;;-0.68;100.00;100784.72;4993153;28;20022;-79
2022/12/13 11:08:47;;;;;;;44.40;19.23;;;;;;;-0.58;100.00;100785.28;4997118;28;20469;-80
2022/12/13 11:11:17;;;;;;;36.10;16.58;;;;;;;-0.77;100.00;100776.94;5000563;28;20050;-79
2022/12/13 11:13:45;;;;;;;47.17;19.70;;;;;;;-0.76;100.00;100786.78;5001974;28;20121;-80
2022/12/13 11:16:22;;;;;;;47.58;18.45;;;;;;;-0.88;100.00;100771.94;4993062;28;20106;-79